Time;durP1;ratioP1;P1;durP2;ratioP2;P2;SDS_P1;SDS_P2;PMS_P1;PMS_P2;Temp;Humidity;BMP_temperature;BMP_pressure;BME280_temperature;BME280_humidity;BME280_pressure;Samples;Min_cycle;Max_cycle;Signal;HPM_P1;HPM_P2
2021/12/09 00:00:31;;;;;;;;;;;;;;;1.44;95.00;99881.00;1797750;79;20172;-64
2021/12/09 00:03:05;;;;;;;;;;;;;;;1.44;95.01;99884.20;1770834;81;20243;-63
2021/12/09 00:05:31;;;;;;;;;;;;;;;1.43;95.03;99882.00;1738532;82;20214;-63
2021/12/09 00:07:59;;;;;;;;;;;;;;;1.43;94.94;99894.15;1756756;82;20197;-64
2021/12/09 00:10:28;;;;;;;;;;;;;;;1.42;94.90;99893.80;1755926;82;20277;-63
2021/12/09 00:12:57;;;;;;;;;;;;;;;1.45;94.91;99901.59;1731205;82;20223;-63
2021/12/09 00:15:58;;;;;;;;;;;;;;;1.48;94.89;99903.98;1737680;82;20165;-64
2021/12/09 00:18:31;;;;;;;;;;;;;;;1.47;94.81;99900.09;1746729;82;20463;-63
2021/12/09 00:21:02;;;;;;;;;;;;;;;1.46;94.82;99903.80;1755965;81;20198;-64
2021/12/09 00:23:31;;;;;;;;;;;;;;;1.47;94.83;99904.14;1802058;79;20149;-64
2021/12/09 00:25:59;;;;;;;;;;;;;;;1.45;94.80;99907.49;1807274;79;20503;-64
2021/12/09 00:28:28;;;;;;;;;;;;;;;1.45;94.76;99906.99;1807129;79;20149;-64
2021/12/09 00:30:56;;;;;;;;;;;;;;;1.44;94.66;99916.59;1807506;79;20184;-63
2021/12/09 00:33:25;;;;;;;;;;;;;;;1.42;94.67;99915.39;1807362;79;20165;-64
2021/12/09 00:35:57;;;;;;;;;;;;;;;1.42;94.70;99919.44;1800080;79;20149;-64
2021/12/09 00:38:36;;;;;;;;;;;;;;;1.44;94.81;99913.89;1800721;79;21115;-64
2021/12/09 00:41:08;;;;;;;;;;;;;;;1.46;94.87;99916.79;1798686;79;20460;-63
2021/12/09 00:43:36;;;;;;;;;;;;;;;1.48;94.89;99913.94;1800192;79;20149;-66
2021/12/09 00:46:04;;;;;;;;;;;;;;;1.50;94.87;99916.84;1801205;79;20525;-62
2021/12/09 00:48:32;;;;;;;;;;;;;;;1.50;94.71;99921.38;1807136;79;20181;-64
2021/12/09 00:51:25;;;;;;;;;;;;;;;1.45;94.58;99918.30;1802533;79;20541;-64
2021/12/09 00:57:46;;;;;;;;;;;;;;;1.43;94.61;99922.49;1802329;79;20220;-63
2021/12/09 01:00:17;;;;;;;;;;;;;;;1.44;94.64;99928.23;1802339;79;20213;-66
2021/12/09 01:02:45;;;;;;;;;;;;;;;1.44;94.64;99926.04;1802153;79;20227;-63
2021/12/09 01:05:13;;;;;;;;;;;;;;;1.44;94.60;99921.48;1804524;79;20584;-63
2021/12/09 01:07:42;;;;;;;;;;;;;;;1.45;94.65;99923.19;1798905;79;20189;-65
2021/12/09 01:10:13;;;;;;;;;;;;;;;1.47;94.63;99926.59;1809869;79;20448;-65
2021/12/09 01:12:41;;;;;;;;;;;;;;;1.44;94.55;99921.48;1798308;79;20193;-65
2021/12/09 01:15:10;;;;;;;;;;;;;;;1.45;94.57;99927.73;1796262;79;20218;-64
2021/12/09 01:17:40;;;;;;;;;;;;;;;1.42;94.53;99926.19;1803239;79;20190;-64
2021/12/09 01:20:10;;;;;;;;;;;;;;;1.43;94.58;99922.49;1798694;79;20525;-64
2021/12/09 01:22:42;;;;;;;;;;;;;;;1.45;94.57;99931.28;1808339;79;20157;-64
2021/12/09 01:25:11;;;;;;;;;;;;;;;1.47;94.55;99936.53;1803291;79;20459;-63
2021/12/09 01:27:42;;;;;;;;;;;;;;;1.47;94.51;99931.14;1803308;79;20522;-63
2021/12/09 01:30:14;;;;;;;;;;;;;;;1.47;94.55;99931.98;1801276;79;20212;-65
2021/12/09 01:32:47;;;;;;;;;;;;;;;1.46;94.53;99929.44;1801086;79;20253;-65
2021/12/09 01:35:12;;;;;;;;;;;;;;;1.43;94.51;99934.64;1809237;79;20181;-66
2021/12/09 01:37:40;;;;;;;;;;;;;;;1.42;94.47;99929.39;1785895;79;20196;-66
2021/12/09 01:40:10;;;;;;;;;;;;;;;1.37;94.39;99929.84;1795501;79;20474;-63
2021/12/09 01:42:38;;;;;;;;;;;;;;;1.37;94.45;99933.04;1783851;79;20141;-63
2021/12/09 01:45:07;;;;;;;;;;;;;;;1.39;94.57;99935.09;1802862;79;20468;-64
2021/12/09 01:47:38;;;;;;;;;;;;;;;1.39;94.56;99940.48;1799642;79;20577;-64
2021/12/09 01:50:07;;;;;;;;;;;;;;;1.38;94.57;99935.59;1805140;79;20192;-64
2021/12/09 01:52:36;;;;;;;;;;;;;;;1.40;94.63;99935.44;1795764;79;20260;-65
2021/12/09 01:55:06;;;;;;;;;;;;;;;1.39;94.57;99941.34;1805158;79;20150;-62
2021/12/09 01:57:38;;;;;;;;;;;;;;;1.39;94.55;99940.48;1802848;79;20149;-63
2021/12/09 02:00:09;;;;;;;;;;;;;;;1.39;94.57;99941.84;1795313;79;20495;-64
2021/12/09 02:02:39;;;;;;;;;;;;;;;1.40;94.61;99939.48;1799580;79;20608;-64
2021/12/09 02:05:10;;;;;;;;;;;;;;;1.40;94.57;99943.03;1797986;79;20174;-65
2021/12/09 02:07:39;;;;;;;;;;;;;;;1.36;94.59;99935.39;1799731;79;20170;-64
2021/12/09 02:10:10;;;;;;;;;;;;;;;1.36;94.63;99936.23;1810778;79;20149;-63
2021/12/09 02:12:38;;;;;;;;;;;;;;;1.38;94.63;99940.98;1805016;79;20150;-64
2021/12/09 02:15:08;;;;;;;;;;;;;;;1.41;94.73;99942.03;1805956;79;20145;-63
2021/12/09 02:17:36;;;;;;;;;;;;;;;1.44;94.75;99947.13;1804012;79;20239;-63
2021/12/09 02:20:07;;;;;;;;;;;;;;;1.47;94.80;99950.88;1795084;79;20536;-64
2021/12/09 02:22:36;;;;;;;;;;;;;;;1.48;94.70;99953.08;1806838;79;20149;-65
2021/12/09 02:25:05;;;;;;;;;;;;;;;1.48;94.69;99959.83;1804457;79;20541;-63
2021/12/09 02:27:35;;;;;;;;;;;;;;;1.46;94.64;99961.33;1808129;79;20172;-64
2021/12/09 02:30:05;;;;;;;;;;;;;;;1.47;94.67;99961.68;1813740;79;20169;-64
2021/12/09 02:32:35;;;;;;;;;;;;;;;1.50;94.64;99967.28;1811997;79;20153;-65
2021/12/09 02:35:03;;;;;;;;;;;;;;;1.54;94.65;99968.17;1807186;79;20508;-64
2021/12/09 02:37:33;;;;;;;;;;;;;;;1.52;94.57;99969.33;1794915;79;20479;-65
2021/12/09 02:40:03;;;;;;;;;;;;;;;1.47;94.49;99974.33;1797851;79;20193;-64
2021/12/09 02:42:32;;;;;;;;;;;;;;;1.39;94.40;99976.42;1795838;79;20233;-64
2021/12/09 02:45:03;;;;;;;;;;;;;;;1.38;94.47;99975.22;1783343;79;20252;-63
2021/12/09 02:47:32;;;;;;;;;;;;;;;1.39;94.47;99968.83;1797912;79;20181;-65
2021/12/09 02:50:01;;;;;;;;;;;;;;;1.39;94.44;99967.48;1783446;79;20209;-65
2021/12/09 02:52:29;;;;;;;;;;;;;;;1.34;94.32;99966.58;1798356;79;20153;-63
2021/12/09 02:54:59;;;;;;;;;;;;;;;1.34;94.37;99974.67;1774708;79;20162;-62
2021/12/09 02:57:27;;;;;;;;;;;;;;;1.35;94.42;99977.72;1798110;79;20146;-63
2021/12/09 02:59:57;;;;;;;;;;;;;;;1.36;94.43;99978.08;1799765;79;20154;-65
2021/12/09 03:02:26;;;;;;;;;;;;;;;1.35;94.40;99985.82;1800269;79;20185;-63
2021/12/09 03:04:58;;;;;;;;;;;;;;;1.34;94.33;99978.72;1803494;79;20459;-64
2021/12/09 03:07:30;;;;;;;;;;;;;;;1.38;94.41;99983.33;1796769;79;20511;-63
2021/12/09 03:10:02;;;;;;;;;;;;;;;1.37;94.32;99983.83;1810960;79;20589;-63
2021/12/09 03:12:33;;;;;;;;;;;;;;;1.36;94.32;99986.17;1803625;79;20224;-63
2021/12/09 03:15:02;;;;;;;;;;;;;;;1.38;94.40;99988.22;1803844;79;20201;-63
2021/12/09 03:17:32;;;;;;;;;;;;;;;1.39;94.39;99987.22;1803368;79;20142;-63
2021/12/09 03:20:01;;;;;;;;;;;;;;;1.37;94.32;99985.67;1803636;79;20220;-63
2021/12/09 03:22:30;;;;;;;;;;;;;;;1.35;94.31;99992.56;1796065;79;20542;-63
2021/12/09 03:24:58;;;;;;;;;;;;;;;1.35;94.32;99991.22;1802403;79;20233;-63
2021/12/09 03:27:26;;;;;;;;;;;;;;;1.34;94.35;99988.17;1800345;79;20525;-64
2021/12/09 03:29:55;;;;;;;;;;;;;;;1.38;94.40;99986.88;1801331;79;20447;-63
2021/12/09 03:32:24;;;;;;;;;;;;;;;1.39;94.29;99998.02;1801122;79;20456;-64
2021/12/09 03:34:52;;;;;;;;;;;;;;;1.39;94.23;99998.52;1798040;79;20521;-63
2021/12/09 03:37:22;;;;;;;;;;;;;;;1.37;94.28;100000.02;1801566;79;20158;-63
2021/12/09 03:39:51;;;;;;;;;;;;;;;1.37;94.28;99997.81;1807894;79;20479;-62
2021/12/09 03:42:22;;;;;;;;;;;;;;;1.37;94.27;99990.56;1803215;79;20213;-64
2021/12/09 03:44:51;;;;;;;;;;;;;;;1.36;94.19;99994.77;1801641;79;20185;-64
2021/12/09 03:47:21;;;;;;;;;;;;;;;1.36;94.18;99993.42;1798197;79;20233;-63
2021/12/09 03:49:50;;;;;;;;;;;;;;;1.37;94.20;99993.77;1806217;79;20153;-65
2021/12/09 03:52:19;;;;;;;;;;;;;;;1.40;94.28;99988.92;1806264;79;20209;-63
2021/12/09 03:54:47;;;;;;;;;;;;;;;1.39;94.31;99995.32;1808482;79;20217;-62
2021/12/09 03:57:16;;;;;;;;;;;;;;;1.39;94.24;99990.42;1825583;79;20145;-64
2021/12/09 03:59:44;;;;;;;;;;;;;;;1.40;94.30;99992.13;1826113;79;20255;-67
2021/12/09 04:02:13;;;;;;;;;;;;;;;1.42;94.38;99995.02;1825111;79;20466;-61
2021/12/09 04:04:42;;;;;;;;;;;;;;;1.43;94.40;99994.02;1825304;79;20196;-63
2021/12/09 04:07:11;;;;;;;;;;;;;;;1.42;94.32;100003.12;1817862;79;20639;-65
2021/12/09 04:09:39;;;;;;;;;;;;;;;1.40;94.29;100000.22;1819515;79;20501;-64
2021/12/09 04:12:09;;;;;;;;;;;;;;;1.38;94.29;100008.47;1813134;79;20451;-63
2021/12/09 04:14:38;;;;;;;;;;;;;;;1.37;94.37;100008.11;1816619;79;20165;-64
2021/12/09 04:17:07;;;;;;;;;;;;;;;1.36;94.34;100016.36;1811895;78;20460;-62
2021/12/09 04:19:37;;;;;;;;;;;;;;;1.37;94.40;100010.81;1819543;79;20145;-63
2021/12/09 04:22:05;;;;;;;;;;;;;;;1.39;94.42;100014.21;1806253;79;20206;-63
2021/12/09 04:24:35;;;;;;;;;;;;;;;1.39;94.42;100014.21;1809444;79;20545;-62
2021/12/09 04:27:04;;;;;;;;;;;;;;;1.41;94.45;100012.72;1816360;79;20149;-65
2021/12/09 04:29:33;;;;;;;;;;;;;;;1.39;94.43;100011.52;1818426;78;20272;-63
2021/12/09 04:32:01;;;;;;;;;;;;;;;1.39;94.53;100012.86;1808088;79;20161;-62
2021/12/09 04:34:30;;;;;;;;;;;;;;;1.40;94.53;100022.66;1798802;79;20176;-62
2021/12/09 04:36:59;;;;;;;;;;;;;;;1.40;94.45;100019.96;1810570;79;20193;-63
2021/12/09 04:39:28;;;;;;;;;;;;;;;1.42;94.50;100023.86;1798987;79;20627;-63
2021/12/09 04:41:57;;;;;;;;;;;;;;;1.45;94.57;100021.72;1782382;79;20169;-63
2021/12/09 04:44:25;;;;;;;;;;;;;;;1.45;94.56;100014.97;1785711;79;20181;-65
2021/12/09 04:46:55;;;;;;;;;;;;;;;1.46;94.56;100020.72;1810795;79;20184;-63
2021/12/09 04:49:24;;;;;;;;;;;;;;;1.45;94.55;100021.72;1794127;79;20440;-65
2021/12/09 04:51:52;;;;;;;;;;;;;;;1.46;94.47;100026.62;1792435;79;20254;-65
2021/12/09 04:54:21;;;;;;;;;;;;;;;1.46;94.48;100027.97;1793238;79;20156;-64
2021/12/09 04:56:50;;;;;;;;;;;;;;;1.45;94.45;100037.06;1792535;79;20253;-64
2021/12/09 04:59:19;;;;;;;;;;;;;;;1.45;94.44;100043.81;1792586;79;20452;-63
2021/12/09 05:01:50;;;;;;;;;;;;;;;1.45;94.49;100046.02;1803205;79;20189;-64
2021/12/09 05:04:18;;;;;;;;;;;;;;;1.46;94.50;100050.91;1805244;79;20237;-63
2021/12/09 05:06:47;;;;;;;;;;;;;;;1.49;94.58;100048.77;1804585;79;20177;-64
2021/12/09 05:09:18;;;;;;;;;;;;;;;1.53;94.58;100051.52;1793726;79;20153;-65
2021/12/09 05:14:20;;;;;;;;;;;;;;;1.53;94.52;100055.56;1791859;79;20553;-65
2021/12/09 05:16:52;;;;;;;;;;;;;;;1.56;94.56;100063.38;1798973;79;20519;-63
2021/12/09 05:19:21;;;;;;;;;;;;;;;1.60;94.61;100062.58;1810475;79;20510;-65
2021/12/09 05:21:52;;;;;;;;;;;;;;;1.59;94.54;100063.08;1769176;79;20220;-63
2021/12/09 05:24:20;;;;;;;;;;;;;;;1.56;94.43;100065.22;1791254;79;20253;-65
2021/12/09 05:26:54;;;;;;;;;;;;;;;1.55;94.47;100068.42;1773224;79;20153;-64
2021/12/09 05:29:36;;;;;;;;;;;;;;;1.59;94.50;100071.17;1800573;79;20154;-64
2021/12/09 05:32:10;;;;;;;;;;;;;;;1.62;94.53;100072.73;1806196;79;20542;-68
2021/12/09 05:34:44;;;;;;;;;;;;;;;1.62;94.49;100079.48;1795714;79;20154;-63
2021/12/09 05:37:14;;;;;;;;;;;;;;;1.61;94.38;100080.48;1801742;79;20189;-63
2021/12/09 05:39:43;;;;;;;;;;;;;;;1.61;94.46;100085.02;1802329;79;20463;-65
2021/12/09 05:42:11;;;;;;;;;;;;;;;1.64;94.55;100083.38;1806087;79;20157;-63
2021/12/09 05:44:40;;;;;;;;;;;;;;;1.66;94.57;100084.08;1802840;79;20525;-64
2021/12/09 05:47:09;;;;;;;;;;;;;;;1.66;94.54;100084.08;1800712;79;20472;-63
2021/12/09 05:49:39;;;;;;;;;;;;;;;1.66;94.52;100090.83;1794208;79;20256;-65
2021/12/09 05:52:07;;;;;;;;;;;;;;;1.67;94.52;100088.48;1806186;79;20197;-65
2021/12/09 05:54:35;;;;;;;;;;;;;;;1.68;94.53;100095.58;1806446;79;20185;-64
2021/12/09 05:57:05;;;;;;;;;;;;;;;1.69;94.53;100094.59;1742965;82;20162;-65
2021/12/09 05:59:34;;;;;;;;;;;;;;;1.67;94.55;100097.94;1739911;82;20182;-63
2021/12/09 06:02:03;;;;;;;;;;;;;;;1.67;94.51;100096.58;1739654;82;20549;-63
2021/12/09 06:04:31;;;;;;;;;;;;;;;1.70;94.54;100104.39;1739869;82;20162;-64
2021/12/09 06:07:00;;;;;;;;;;;;;;;1.74;94.56;100115.25;1739786;82;20166;-64
2021/12/09 06:09:29;;;;;;;;;;;;;;;1.75;94.52;100116.95;1739957;82;20512;-65
2021/12/09 06:11:58;;;;;;;;;;;;;;;1.77;94.57;100122.55;1739725;82;20174;-65
2021/12/09 06:14:26;;;;;;;;;;;;;;;1.77;94.58;100121.20;1751256;79;20209;-66
2021/12/09 06:16:54;;;;;;;;;;;;;;;1.79;94.62;100125.11;1809104;79;20710;-66
2021/12/09 06:19:23;;;;;;;;;;;;;;;1.79;94.62;100133.20;1803777;79;20209;-64
2021/12/09 06:21:53;;;;;;;;;;;;;;;1.81;94.62;100137.46;1803574;79;20250;-65
2021/12/09 06:24:23;;;;;;;;;;;;;;;1.80;94.50;100136.27;1784788;79;20557;-64
2021/12/09 06:26:51;;;;;;;;;;;;;;;1.77;94.47;100143.31;1807311;79;20462;-64
2021/12/09 06:29:21;;;;;;;;;;;;;;;1.78;94.52;100139.61;1802168;79;20260;-66
2021/12/09 06:31:51;;;;;;;;;;;;;;;1.78;94.58;100152.61;1805126;79;20515;-64
2021/12/09 06:34:19;;;;;;;;;;;;;;;1.78;94.54;100157.16;1809263;79;20444;-64
2021/12/09 06:36:48;;;;;;;;;;;;;;;1.78;94.53;100161.22;1796874;79;20475;-63
2021/12/09 06:39:17;;;;;;;;;;;;;;;1.80;94.56;100164.62;1810789;79;20173;-63
2021/12/09 06:41:45;;;;;;;;;;;;;;;1.82;94.53;100159.92;1803279;79;20541;-65
2021/12/09 06:44:16;;;;;;;;;;;;;;;1.82;94.49;100161.27;1805096;79;20141;-65
2021/12/09 06:46:47;;;;;;;;;;;;;;;1.83;94.58;100162.98;1802331;79;20169;-65
2021/12/09 06:49:16;;;;;;;;;;;;;;;1.82;94.56;100163.97;1799681;79;20170;-64
2021/12/09 06:51:44;;;;;;;;;;;;;;;1.83;94.59;100166.53;1804065;79;20531;-65
2021/12/09 06:54:12;;;;;;;;;;;;;;;1.85;94.59;100171.78;1797990;79;20181;-67
2021/12/09 06:56:41;;;;;;;;;;;;;;;1.85;94.54;100176.69;1802519;79;20169;-65
2021/12/09 06:59:09;;;;;;;;;;;;;;;1.85;94.50;100177.19;1807679;79;20459;-66
2021/12/09 07:01:38;;;;;;;;;;;;;;;1.86;94.49;100183.80;1786350;79;20192;-63
2021/12/09 07:04:09;;;;;;;;;;;;;;;1.85;94.42;100179.39;1750508;82;20518;-65
2021/12/09 07:06:39;;;;;;;;;;;;;;;1.86;94.49;100181.59;1728673;82;20257;-65
2021/12/09 07:09:08;;;;;;;;;;;;;;;1.87;94.49;100190.05;1742409;82;20503;-65
2021/12/09 07:11:43;;;;;;;;;;;;;;;1.87;94.48;100183.30;1740647;82;21007;-64
2021/12/09 07:14:10;;;;;;;;;;;;;;;1.90;94.54;100185.70;1741739;82;20187;-64
2021/12/09 07:16:38;;;;;;;;;;;;;;;1.93;94.52;100192.16;1741256;82;20221;-63
2021/12/09 07:19:08;;;;;;;;;;;;;;;1.94;94.49;100191.66;1740589;82;20491;-64
2021/12/09 07:21:37;;;;;;;;;;;;;;;1.94;94.49;100195.21;1754764;79;20550;-64
2021/12/09 07:24:08;;;;;;;;;;;;;;;1.95;94.53;100198.77;1810147;79;20264;-65
2021/12/09 07:26:37;;;;;;;;;;;;;;;1.96;94.56;100195.95;1811666;79;20499;-65
2021/12/09 07:29:05;;;;;;;;;;;;;;;1.95;94.56;100196.06;1809215;79;20210;-66
2021/12/09 07:31:36;;;;;;;;;;;;;;;1.97;94.57;100194.09;1805080;79;20157;-65
2021/12/09 07:34:04;;;;;;;;;;;;;;;1.97;94.56;100200.85;1797170;79;20177;-65
2021/12/09 07:36:33;;;;;;;;;;;;;;;1.99;94.59;100202.41;1793623;79;20571;-66
2021/12/09 07:39:03;;;;;;;;;;;;;;;2.00;94.56;100207.31;1761275;81;20176;-65
2021/12/09 07:41:37;;;;;;;;;;;;;;;2.01;94.55;100203.61;1740264;82;20180;-66
2021/12/09 07:44:05;;;;;;;;;;;;;;;2.00;94.53;100209.52;1733136;82;20212;-65
2021/12/09 07:46:34;;;;;;;;;;;;;;;2.01;94.58;100211.72;1734233;82;20226;-66
2021/12/09 07:49:02;;;;;;;;;;;;;;;2.00;94.56;100212.71;1797690;79;20226;-65
2021/12/09 07:51:30;;;;;;;;;;;;;;;2.00;94.58;100214.92;1781126;80;20172;-66
2021/12/09 07:54:01;;;;;;;;;;;;;;;2.01;94.52;100217.97;1767383;81;20215;-65
2021/12/09 07:56:30;;;;;;;;;;;;;;;2.04;94.56;100218.17;1735494;82;20281;-64
2021/12/09 07:58:59;;;;;;;;;;;;;;;2.06;94.58;100215.67;1713366;82;20719;-65
2021/12/09 08:01:29;;;;;;;;;;;;;;;2.03;94.51;100215.12;1734426;82;20159;-64
2021/12/09 08:03:58;;;;;;;;;;;;;;;2.00;94.50;100222.17;1729353;82;20203;-65
2021/12/09 08:06:26;;;;;;;;;;;;;;;2.01;94.53;100228.78;1728262;83;20164;-65
2021/12/09 08:08:56;;;;;;;;;;;;;;;2.04;94.62;100231.19;1728553;83;20148;-65
2021/12/09 08:11:24;;;;;;;;;;;;;;;2.06;94.58;100229.19;1728366;83;20168;-64
2021/12/09 08:13:53;;;;;;;;;;;;;;;2.07;94.55;100236.30;1728373;83;20219;-64
2021/12/09 08:16:21;;;;;;;;;;;;;;;2.06;94.50;100238.65;1728516;83;20202;-64
2021/12/09 08:18:56;;;;;;;;;;;;;;;2.03;94.44;100238.94;1728385;83;20210;-65
2021/12/09 08:21:27;;;;;;;;;;;;;;;2.02;94.43;100241.30;1728582;83;20446;-65
2021/12/09 08:23:55;;;;;;;;;;;;;;;2.02;94.51;100235.89;1728232;83;20530;-65
2021/12/09 08:26:27;;;;;;;;;;;;;;;2.03;94.51;100238.94;1728516;83;20482;-65
2021/12/09 08:28:56;;;;;;;;;;;;;;;2.05;94.55;100237.44;1728405;83;20191;-65
2021/12/09 08:31:29;;;;;;;;;;;;;;;2.03;94.44;100236.23;1727683;82;20151;-65
2021/12/09 08:34:02;;;;;;;;;;;;;;;2.02;94.43;100236.39;1721838;83;20220;-64
2021/12/09 08:36:33;;;;;;;;;;;;;;;2.01;94.49;100240.94;1719574;83;20207;-65
2021/12/09 08:39:01;;;;;;;;;;;;;;;2.01;94.49;100240.94;1723312;83;20195;-65
2021/12/09 08:41:29;;;;;;;;;;;;;;;2.02;94.56;100241.30;1722976;83;20160;-65
2021/12/09 08:43:59;;;;;;;;;;;;;;;2.04;94.66;100237.94;1722862;83;20179;-65
2021/12/09 08:46:29;;;;;;;;;;;;;;;2.05;94.68;100234.24;1723013;83;20226;-65
2021/12/09 08:48:57;;;;;;;;;;;;;;;2.09;94.73;100234.30;1722995;83;20164;-66
2021/12/09 08:51:28;;;;;;;;;;;;;;;2.11;94.68;100232.30;1722863;83;20159;-65
2021/12/09 08:53:58;;;;;;;;;;;;;;;2.08;94.55;100238.50;1722890;83;20176;-66
2021/12/09 08:56:27;;;;;;;;;;;;;;;2.08;94.56;100233.09;1722997;83;20164;-66
2021/12/09 08:58:55;;;;;;;;;;;;;;;2.08;94.60;100238.50;1722994;83;20300;-65
2021/12/09 09:01:24;;;;;;;;;;;;;;;2.10;94.67;100237.35;1722919;83;20203;-65
2021/12/09 09:03:53;;;;;;;;;;;;;;;2.11;94.68;100240.91;1722971;83;20209;-64
2021/12/09 09:06:22;;;;;;;;;;;;;;;2.11;94.63;100237.70;1721736;83;20152;-66
2021/12/09 09:08:56;;;;;;;;;;;;;;;2.13;94.65;100236.20;1755655;81;20153;-64
2021/12/09 09:11:21;;;;;;;;;;;;;;;2.13;94.66;100233.00;1762523;81;20526;-63
2021/12/09 09:13:49;;;;;;;;;;;;;;;2.11;94.60;100228.25;1762678;81;20161;-64
2021/12/09 09:16:18;;;;;;;;;;;;;;;2.09;94.58;100230.25;1763291;80;20451;-64
2021/12/09 09:18:47;;;;;;;;;;;;;;;2.10;94.67;100231.95;1776228;80;20151;-64
2021/12/09 09:21:15;;;;;;;;;;;;;;;2.11;94.79;100233.66;1785994;79;20523;-64
2021/12/09 09:23:43;;;;;;;;;;;;;;;2.11;94.75;100230.09;1786298;80;20155;-65
2021/12/09 09:26:13;;;;;;;;;;;;;;;2.10;94.66;100230.59;1786313;80;20215;-64
2021/12/09 09:28:41;;;;;;;;;;;;;;;2.10;94.67;100230.59;1786262;80;20152;-64
2021/12/09 09:31:10;;;;;;;;;;;;;;;2.10;94.64;100231.95;1780018;80;20156;-64
2021/12/09 09:33:38;;;;;;;;;;;;;;;2.09;94.67;100233.45;1771407;81;20156;-65
2021/12/09 09:36:08;;;;;;;;;;;;;;;2.14;94.90;100236.06;1771199;81;20199;-65
2021/12/09 09:38:37;;;;;;;;;;;;;;;2.20;94.96;100242.22;1771390;81;20223;-65
2021/12/09 09:41:13;;;;;;;;;;;;;;;2.21;94.92;100237.17;1770824;81;20279;-67
2021/12/09 09:46:19;;;;;;;;;;;;;;;2.25;94.87;100228.77;1771832;81;20471;-67
2021/12/09 09:48:49;;;;;;;;;;;;;;;2.27;94.84;100228.11;1773003;81;20150;-65
2021/12/09 09:51:19;;;;;;;;;;;;;;;2.26;94.84;100225.06;1773563;81;20161;-66
2021/12/09 09:53:47;;;;;;;;;;;;;;;2.29;94.92;100226.11;1772870;81;20221;-66
2021/12/09 09:56:19;;;;;;;;;;;;;;;2.31;94.91;100230.87;1773602;81;20154;-66
2021/12/09 09:58:56;;;;;;;;;;;;;;;2.31;94.89;100232.22;1771218;81;20153;-65
2021/12/09 10:01:24;;;;;;;;;;;;;;;2.32;94.85;100227.16;1740016;82;20162;-65
2021/12/09 10:03:59;;;;;;;;;;;;;;;2.29;94.77;100227.47;1744207;82;20210;-65
2021/12/09 10:06:23;;;;;;;;;;;;;;;2.27;94.78;100228.97;1739654;82;20217;-66
2021/12/09 10:08:53;;;;;;;;;;;;;;;2.25;94.77;100230.11;1740387;82;20487;-65
2021/12/09 10:11:24;;;;;;;;;;;;;;;2.26;94.77;100238.58;1739890;82;20154;-66
2021/12/09 10:13:52;;;;;;;;;;;;;;;2.22;94.71;100235.31;1739916;82;20183;-65
2021/12/09 10:16:22;;;;;;;;;;;;;;;2.20;94.70;100234.11;1740075;82;20209;-65
2021/12/09 10:18:53;;;;;;;;;;;;;;;2.22;94.72;100224.50;1739959;82;20274;-64
2021/12/09 10:21:24;;;;;;;;;;;;;;;2.25;94.80;100233.67;1739929;82;20158;-65
2021/12/09 10:24:07;;;;;;;;;;;;;;;2.28;94.84;100238.78;1739856;82;20213;-65
2021/12/09 10:26:41;;;;;;;;;;;;;;;2.28;94.77;100233.87;1740152;82;20213;-65
2021/12/09 10:29:19;;;;;;;;;;;;;;;2.23;94.72;100233.81;1740033;82;20520;-66
2021/12/09 10:31:55;;;;;;;;;;;;;;;2.22;94.66;100245.62;1760988;81;20279;-66
2021/12/09 10:34:43;;;;;;;;;;;;;;;2.22;94.66;100241.58;1797779;79;20188;-66
2021/12/09 10:37:04;;;;;;;;;;;;;;;2.25;94.70;100249.03;1805669;79;20145;-65
2021/12/09 10:39:40;;;;;;;;;;;;;;;2.23;94.63;100245.98;1808649;79;20509;-65
2021/12/09 10:42:12;;;;;;;;;;;;;;;2.23;94.73;100243.78;1808689;79;20146;-65
2021/12/09 10:44:55;;;;;;;;;;;;;;;2.25;94.78;100247.69;1808765;79;20168;-65
2021/12/09 10:47:45;;;;;;;;;;;;;;;2.28;94.99;100250.94;1808855;79;20520;-65
2021/12/09 10:50:35;;;;;;;;;;;;;;;2.29;94.96;100245.89;1808802;79;20520;-66
2021/12/09 10:56:04;;;;;;;;;;;;;;;2.31;94.89;100252.00;1814032;79;20156;-67
2021/12/09 10:58:36;;;;;;;;;;;;;;;2.31;94.87;100252.00;1802682;80;20154;-66
2021/12/09 11:01:16;;;;;;;;;;;;;;;2.31;94.79;100252.50;1770308;80;20152;-64
2021/12/09 11:03:54;;;;;;;;;;;;;;;2.30;94.83;100250.30;1789967;80;20205;-64
2021/12/09 11:06:31;;;;;;;;;;;;;;;2.31;94.80;100257.91;1798095;80;20156;-66
2021/12/09 11:09:07;;;;;;;;;;;;;;;2.31;94.79;100253.84;1754690;82;20181;-64
2021/12/09 11:11:41;;;;;;;;;;;;;;;2.31;94.73;100255.20;1765126;81;20151;-66
2021/12/09 11:14:17;;;;;;;;;;;;;;;2.32;94.77;100248.80;1748574;82;20158;-67
2021/12/09 11:16:55;;;;;;;;;;;;;;;2.33;94.77;100249.14;1746438;82;20150;-65
2021/12/09 11:19:35;;;;;;;;;;;;;;;2.34;94.78;100246.80;1796753;79;20197;-65
2021/12/09 11:22:00;;;;;;;;;;;;;;;2.32;94.75;100242.89;1799452;79;20169;-64
2021/12/09 11:24:32;;;;;;;;;;;;;;;2.36;94.86;100238.03;1800104;80;20556;-64
2021/12/09 11:27:04;;;;;;;;;;;;;;;2.42;95.00;100240.14;1790767;80;20506;-64
2021/12/09 11:29:42;;;;;;;;;;;;;;;2.42;94.87;100227.97;1772535;81;20611;-65
2021/12/09 11:34:56;;;;;;;;;;;;;;;2.40;94.71;100240.79;1762605;81;20165;-66
2021/12/09 11:40:17;;;;;;;;;;;;;;;2.41;94.76;100246.55;1750395;81;20717;-67
2021/12/09 11:42:50;;;;;;;;;;;;;;;2.37;94.67;100246.00;1734058;82;20150;-64
2021/12/09 11:45:17;;;;;;;;;;;;;;;2.33;94.55;100248.64;1749779;82;20480;-64
2021/12/09 11:47:47;;;;;;;;;;;;;;;2.32;94.59;100248.30;1749883;82;20217;-64
2021/12/09 11:50:23;;;;;;;;;;;;;;;2.34;94.63;100245.44;1750498;81;20519;-63
2021/12/09 11:52:52;;;;;;;;;;;;;;;2.33;94.52;100247.80;1718188;83;20207;-64
2021/12/09 11:55:25;;;;;;;;;;;;;;;2.32;94.60;100252.35;1718141;83;20498;-65
2021/12/09 11:57:56;;;;;;;;;;;;;;;2.40;94.95;100247.55;1716568;83;20148;-65
2021/12/09 12:12:36;;;;;;;;;;;;;;;2.48;94.93;100264.73;1751817;82;20241;-65
2021/12/09 12:15:44;;;;;;;;;;;;;;;2.49;94.90;100261.03;1717532;83;20151;-65
2021/12/09 12:21:00;;;;;;;;;;;;;;;2.41;94.59;100270.38;1718297;83;20152;-64
2021/12/09 12:27:00;;;;;;;;;;;;;;;2.37;94.59;100267.63;1769795;81;20469;-66
2021/12/09 12:35:11;;;;;;;;;;;;;;;2.41;94.45;100270.88;1801977;79;20233;-63
2021/12/09 12:40:28;;;;;;;;;;;;;;;2.34;94.46;100273.33;1800279;80;20208;-65
2021/12/09 12:43:04;;;;;;;;;;;;;;;2.34;94.52;100273.83;1800498;80;20201;-64
2021/12/09 12:51:31;;;;;;;;;;;;;;;2.39;94.71;100267.48;1666537;85;20518;-64
2021/12/09 12:54:01;;;;;;;;;;;;;;;2.42;94.69;100269.38;1643434;86;20192;-65
2021/12/09 12:56:45;;;;;;;;;;;;;;;2.42;94.59;100280.70;1640490;87;20481;-66
2021/12/09 12:59:18;;;;;;;;;;;;;;;2.40;94.60;100289.45;1640343;87;20244;-65
2021/12/09 13:05:00;;;;;;;;;;;;;;;2.39;94.42;100290.45;1740149;82;20261;-65
2021/12/09 13:07:38;;;;;;;;;;;;;;;2.36;94.29;100299.72;1766019;81;20219;-65
2021/12/09 13:10:43;;;;;;;;;;;;;;;2.35;94.23;100300.72;1798575;79;20142;-64
2021/12/09 13:13:21;;;;;;;;;;;;;;;2.32;94.16;100308.27;1798966;79;20156;-65
2021/12/09 13:19:22;;;;;;;;;;;;;;;2.31;94.30;100316.88;1800256;80;20154;-64
2021/12/09 13:21:54;;;;;;;;;;;;;;;2.32;94.24;100317.23;1800324;80;20154;-66
2021/12/09 13:24:37;;;;;;;;;;;;;;;2.40;94.50;100313.79;1800089;80;20579;-65
2021/12/09 13:50:13;;;;;;;;;;;;;;;2.34;94.00;100322.48;1776683;81;20184;-64
2021/12/09 13:55:14;;;;;;;;;;;;;;;2.36;94.02;100321.84;1794854;80;20281;-66
2021/12/09 13:57:51;;;;;;;;;;;;;;;2.35;93.93;100321.48;1792083;79;20476;-65
2021/12/09 14:00:26;;;;;;;;;;;;;;;2.30;93.91;100325.98;1795283;79;20533;-66
2021/12/09 14:02:56;;;;;;;;;;;;;;;2.33;94.04;100326.20;1778969;80;20292;-65
2021/12/09 14:05:24;;;;;;;;;;;;;;;2.32;93.95;100330.75;1776412;81;20203;-65
2021/12/09 14:08:05;;;;;;;;;;;;;;;2.31;93.88;100336.30;1776328;81;20151;-65
2021/12/09 14:10:35;;;;;;;;;;;;;;;2.29;93.89;100341.85;1776477;81;20215;-65
2021/12/09 14:13:08;;;;;;;;;;;;;;;2.30;93.87;100336.80;1788006;80;20177;-66
2021/12/09 14:15:41;;;;;;;;;;;;;;;2.31;93.81;100341.70;1794840;80;20158;-65
2021/12/09 14:18:18;;;;;;;;;;;;;;;2.31;93.80;100337.16;1795020;80;20233;-66
2021/12/09 14:20:43;;;;;;;;;;;;;;;2.32;93.85;100345.62;1794814;79;20165;-65
2021/12/09 14:23:12;;;;;;;;;;;;;;;2.34;93.96;100339.56;1794991;80;20150;-65
2021/12/09 14:25:40;;;;;;;;;;;;;;;2.36;94.00;100335.36;1794942;80;20154;-65
2021/12/09 14:28:15;;;;;;;;;;;;;;;2.36;93.87;100344.83;1795055;80;20463;-65
2021/12/09 14:30:46;;;;;;;;;;;;;;;2.31;93.67;100346.61;1779159;80;20219;-65